createdAt,value
2018-01-28T00:02:06.400Z,50.51
2018-01-28T00:04:34.227Z,52.24
2018-01-28T00:07:05.880Z,51.36
2018-01-28T00:09:43.960Z,51.26
2018-01-28T00:12:11.621Z,51.09
2018-01-28T00:14:39.783Z,50.50
2018-01-28T00:17:08.867Z,51.34
2018-01-28T00:19:37.396Z,51.31
2018-01-28T00:22:06.192Z,50.84
2018-01-28T00:24:35.944Z,50.54
2018-01-28T00:27:04.141Z,50.27
2018-01-28T00:29:32.163Z,49.97
2018-01-28T00:31:59.747Z,50.08
2018-01-28T00:34:27.290Z,50.57
2018-01-28T00:36:55.158Z,50.25
2018-01-28T00:39:22.700Z,50.13
2018-01-28T00:41:50.252Z,50.39
2018-01-28T00:44:38.129Z,50.76
2018-01-28T00:47:09.583Z,50.46
2018-01-28T00:49:41.236Z,50.21
2018-01-28T00:52:10.124Z,50.03
2018-01-28T00:54:37.709Z,49.99
2018-01-28T00:57:05.266Z,49.55
2018-01-28T00:59:36.072Z,49.29
2018-01-28T01:02:04.049Z,49.72
2018-01-28T01:04:32.801Z,49.50
2018-01-28T01:07:00.342Z,49.39
2018-01-28T01:09:27.915Z,49.44
2018-01-28T01:11:55.603Z,50.06
2018-01-28T01:14:23.155Z,49.54
2018-01-28T01:16:50.728Z,50.66
2018-01-28T01:19:18.313Z,50.66
2018-01-28T01:21:45.877Z,50.73
2018-01-28T01:24:13.716Z,49.95
2018-01-28T01:26:41.265Z,50.51
2018-01-28T01:29:08.817Z,50.75
2018-01-28T01:31:36.441Z,50.22
2018-01-28T01:34:04.042Z,50.51
2018-01-28T01:36:31.710Z,50.38
2018-01-28T01:38:59.273Z,50.00
2018-01-28T01:41:26.834Z,50.08
2018-01-28T01:43:54.429Z,50.47
2018-01-28T01:46:21.992Z,50.26
2018-01-28T01:48:49.652Z,49.97
2018-01-28T01:51:17.291Z,49.87
2018-01-28T01:53:44.848Z,49.04
2018-01-28T01:56:12.400Z,49.58
2018-01-28T01:58:39.959Z,49.65
2018-01-28T02:01:07.527Z,49.22
2018-01-28T02:03:39.964Z,49.00
2018-01-28T02:06:07.721Z,49.44
2018-01-28T02:08:35.430Z,49.25
2018-01-28T02:11:02.981Z,49.16
2018-01-28T02:13:30.530Z,49.30
2018-01-28T02:15:58.061Z,49.34
2018-01-28T02:18:25.725Z,49.55
2018-01-28T02:20:53.313Z,49.79
2018-01-28T02:23:20.876Z,49.56
2018-01-28T02:25:48.786Z,49.76
2018-01-28T02:28:23.756Z,49.87
2018-01-28T02:30:53.518Z,49.72
2018-01-28T02:33:35.208Z,49.50
2018-01-28T02:36:10.908Z,49.82
2018-01-28T02:38:58.352Z,49.91
2018-01-28T02:41:31.666Z,50.30
2018-01-28T02:46:56.292Z,49.90
2018-01-28T02:49:33.688Z,49.39
2018-01-28T02:52:15.816Z,49.05
2018-01-28T02:54:51.277Z,49.14
2018-01-28T02:57:26.957Z,49.47
2018-01-28T03:05:31.414Z,50.05
2018-01-28T03:08:04.771Z,50.10
2018-01-28T03:10:35.224Z,50.28
2018-01-28T03:13:16.940Z,50.25
2018-01-28T03:15:51.791Z,49.92
2018-01-28T03:18:41.927Z,49.99
2018-01-28T03:21:27.627Z,49.19
2018-01-28T03:24:04.661Z,48.80
2018-01-28T03:26:39.358Z,48.91
2018-01-28T03:29:22.220Z,49.02
2018-01-28T03:31:56.403Z,48.95
2018-01-28T03:34:24.749Z,48.79
2018-01-28T03:36:52.320Z,48.66
2018-01-28T03:39:20.014Z,48.68
2018-01-28T03:41:47.589Z,48.51
2018-01-28T03:44:15.144Z,47.98
2018-01-28T03:46:42.872Z,48.02
2018-01-28T03:49:10.418Z,48.44
2018-01-28T03:51:37.972Z,48.57
2018-01-28T03:54:05.692Z,48.66
2018-01-28T03:56:33.276Z,49.05
2018-01-28T03:59:00.859Z,49.02
2018-01-28T04:01:28.545Z,48.12
2018-01-28T04:03:56.073Z,48.64
2018-01-28T04:06:23.632Z,48.66
2018-01-28T04:08:51.212Z,48.63
2018-01-28T04:11:18.784Z,48.56
2018-01-28T04:13:46.478Z,48.33
2018-01-28T04:16:14.058Z,47.86
2018-01-28T04:18:41.601Z,48.13
2018-01-28T04:21:09.187Z,48.18
2018-01-28T04:23:36.750Z,48.21
2018-01-28T04:26:04.426Z,47.84
2018-01-28T04:28:31.957Z,47.17
2018-01-28T04:30:59.619Z,47.09
2018-01-28T04:33:27.157Z,46.63
2018-01-28T04:35:54.700Z,46.56
2018-01-28T04:38:22.240Z,46.21
2018-01-28T04:40:49.769Z,46.34
2018-01-28T04:43:17.437Z,45.91
2018-01-28T04:45:44.984Z,46.18
2018-01-28T04:48:12.531Z,46.09
2018-01-28T04:50:40.118Z,45.98
2018-01-28T04:53:07.633Z,45.90
2018-01-28T04:55:35.298Z,45.71
2018-01-28T04:58:02.874Z,45.44
2018-01-28T05:00:30.553Z,45.62
2018-01-28T05:02:58.139Z,45.68
2018-01-28T05:05:25.696Z,45.80
2018-01-28T05:07:53.298Z,45.38
2018-01-28T05:10:20.886Z,45.36
2018-01-28T05:12:48.580Z,44.88
2018-01-28T05:15:16.097Z,44.66
2018-01-28T05:17:43.605Z,45.14
2018-01-28T05:20:11.160Z,45.70
2018-01-28T05:22:38.725Z,45.62
2018-01-28T05:25:06.384Z,46.06
2018-01-28T05:27:33.968Z,46.20
2018-01-28T05:30:01.556Z,46.36
2018-01-28T05:32:29.132Z,46.29
2018-01-28T05:34:56.664Z,46.26
2018-01-28T05:37:24.310Z,46.56
2018-01-28T05:39:51.857Z,46.55
2018-01-28T05:42:19.447Z,46.14
2018-01-28T05:44:47.051Z,46.10
2018-01-28T05:47:14.608Z,46.02
2018-01-28T05:49:42.308Z,45.58
2018-01-28T05:52:09.838Z,46.11
2018-01-28T05:54:37.403Z,46.04
2018-01-28T05:57:04.978Z,46.29
2018-01-28T05:59:32.556Z,46.57
2018-01-28T06:02:00.228Z,46.58
2018-01-28T06:04:27.777Z,45.61
2018-01-28T06:06:55.329Z,45.38
2018-01-28T06:09:22.933Z,45.52
2018-01-28T06:11:50.485Z,45.58
2018-01-28T06:14:18.158Z,45.62
2018-01-28T06:16:45.720Z,45.46
2018-01-28T06:19:14.295Z,45.83
2018-01-28T06:21:41.874Z,45.87
2018-01-28T06:24:09.478Z,45.19
2018-01-28T06:26:37.181Z,45.21
2018-01-28T06:29:04.775Z,45.54
2018-01-28T06:31:32.439Z,44.74
2018-01-28T06:33:59.998Z,43.94
2018-01-28T06:36:27.535Z,43.75
2018-01-28T06:38:55.094Z,43.73
2018-01-28T06:41:22.678Z,43.50
2018-01-28T06:43:50.338Z,43.19
2018-01-28T06:46:17.893Z,42.64
2018-01-28T06:48:45.458Z,42.66
2018-01-28T06:51:13.023Z,41.82
2018-01-28T06:53:40.579Z,41.41
2018-01-28T06:56:08.269Z,41.60
2018-01-28T06:58:35.810Z,40.52
2018-01-28T07:01:03.496Z,40.19
2018-01-28T07:03:31.048Z,40.10
2018-01-28T07:05:58.717Z,39.62
2018-01-28T07:08:26.328Z,39.47
2018-01-28T07:10:53.909Z,38.78
2018-01-28T07:13:21.568Z,38.55
2018-01-28T07:15:49.125Z,38.33
2018-01-28T07:18:16.710Z,38.48
2018-01-28T07:20:44.281Z,38.25
2018-01-28T07:23:11.833Z,37.80
2018-01-28T07:25:39.529Z,37.33
2018-01-28T07:28:07.109Z,36.94
2018-01-28T07:30:34.826Z,36.77
2018-01-28T07:33:02.389Z,36.21
2018-01-28T07:35:29.929Z,35.67
2018-01-28T07:37:57.489Z,35.58
2018-01-28T07:40:25.054Z,34.65
2018-01-28T07:42:52.764Z,34.67
2018-01-28T07:45:20.324Z,34.00
2018-01-28T07:47:47.914Z,33.50
2018-01-28T07:50:15.476Z,32.65
2018-01-28T07:52:43.102Z,32.28
2018-01-28T07:55:10.769Z,31.56
2018-01-28T07:57:38.313Z,31.48
2018-01-28T08:00:06.664Z,31.02
2018-01-28T08:02:35.325Z,30.92
2018-01-28T08:05:06.940Z,30.98
2018-01-28T08:07:35.335Z,30.58
2018-01-28T08:10:19.074Z,29.68
2018-01-28T08:12:50.157Z,28.51
2018-01-28T08:15:18.712Z,27.68
2018-01-28T08:17:46.340Z,27.67
2018-01-28T08:20:14.134Z,27.30
2018-01-28T08:22:41.955Z,27.06
2018-01-28T08:25:11.337Z,32.84
2018-01-28T08:27:54.713Z,35.54
2018-01-28T08:30:22.382Z,36.93
2018-01-28T08:32:49.999Z,36.29
2018-01-28T08:35:17.534Z,43.36
2018-01-28T08:37:45.228Z,30.47
2018-01-28T08:40:12.898Z,27.79
2018-01-28T08:42:40.594Z,26.14
2018-01-28T08:45:08.168Z,25.93
2018-01-28T08:47:35.705Z,26.07
2018-01-28T08:50:03.267Z,26.03
2018-01-28T08:52:30.826Z,25.80
2018-01-28T08:54:58.524Z,25.99
2018-01-28T08:57:26.156Z,25.44
2018-01-28T08:59:53.793Z,35.93
2018-01-28T09:02:21.324Z,37.20
2018-01-28T09:04:48.862Z,36.52
2018-01-28T09:07:16.571Z,35.32
2018-01-28T09:09:44.128Z,32.80
2018-01-28T09:12:11.701Z,33.73
2018-01-28T09:14:39.236Z,34.40
2018-01-28T09:17:06.777Z,29.73
2018-01-28T09:19:34.460Z,27.87
2018-01-28T09:22:02.027Z,26.62
2018-01-28T09:24:29.570Z,27.65
2018-01-28T09:26:57.113Z,26.46
2018-01-28T09:29:24.673Z,26.51
2018-01-28T09:31:53.122Z,28.23
2018-01-28T09:34:21.683Z,30.60
2018-01-28T09:36:52.227Z,31.05
2018-01-28T09:39:20.529Z,30.61
2018-01-28T09:41:50.872Z,34.30
2018-01-28T09:44:21.501Z,34.42
2018-01-28T09:46:50.997Z,36.08
2018-01-28T09:49:23.119Z,34.15
2018-01-28T09:51:51.538Z,31.44
2018-01-28T09:54:22.121Z,31.19
2018-01-28T09:56:50.624Z,30.43
2018-01-28T09:59:19.145Z,32.03
2018-01-28T10:01:46.852Z,31.60
2018-01-28T10:04:15.470Z,29.49
2018-01-28T10:06:42.982Z,31.62
2018-01-28T10:09:10.499Z,31.79
2018-01-28T10:11:38.104Z,31.84
2018-01-28T10:14:05.836Z,32.26
2018-01-28T10:16:33.356Z,31.73
2018-01-28T10:19:01.154Z,33.87
2018-01-28T10:21:28.731Z,32.24
2018-01-28T10:23:56.284Z,30.28
2018-01-28T10:26:23.955Z,32.60
2018-01-28T10:28:51.670Z,34.91
2018-01-28T10:31:19.392Z,35.01
2018-01-28T10:33:46.979Z,35.26
2018-01-28T10:36:14.493Z,35.85
2018-01-28T10:38:42.017Z,35.97
2018-01-28T10:41:09.562Z,55.74
2018-01-28T10:43:37.230Z,55.27
2018-01-28T10:46:04.763Z,55.86
2018-01-28T10:48:32.305Z,56.29
2018-01-28T10:50:59.868Z,57.32
2018-01-28T10:53:27.401Z,56.86
2018-01-28T10:55:55.041Z,57.75
2018-01-28T10:58:22.582Z,58.04
2018-01-28T11:00:50.276Z,59.03
2018-01-28T11:03:17.841Z,57.96
2018-01-28T11:05:45.402Z,57.94
2018-01-28T11:08:12.998Z,59.38
2018-01-28T11:10:40.520Z,59.35
2018-01-28T11:13:08.201Z,59.05
2018-01-28T11:15:35.756Z,59.75
2018-01-28T11:18:03.321Z,59.69
2018-01-28T11:20:31.082Z,60.47
2018-01-28T11:22:58.794Z,59.50
2018-01-28T11:25:26.497Z,59.12
2018-01-28T11:27:54.056Z,59.36
2018-01-28T11:30:21.774Z,59.59
2018-01-28T11:32:49.377Z,59.53
2018-01-28T11:35:17.444Z,58.42
2018-01-28T11:37:45.729Z,57.98
2018-01-28T11:40:13.546Z,59.60
2018-01-28T11:42:41.458Z,60.19
2018-01-28T11:45:09.155Z,59.36
2018-01-28T11:47:37.592Z,58.64
2018-01-28T11:50:05.113Z,59.27
2018-01-28T11:52:32.677Z,58.92
2018-01-28T11:55:00.632Z,59.17
2018-01-28T11:57:28.381Z,59.28
2018-01-28T11:59:56.794Z,59.04
2018-01-28T12:02:24.595Z,58.44
2018-01-28T12:04:52.145Z,57.64
2018-01-28T12:07:19.896Z,57.90
2018-01-28T12:09:47.433Z,58.29
2018-01-28T12:12:15.413Z,58.56
2018-01-28T12:14:42.942Z,58.23
2018-01-28T12:17:10.477Z,57.74
2018-01-28T12:19:38.357Z,57.59
2018-01-28T12:22:05.943Z,58.31
2018-01-28T12:24:33.492Z,57.87
2018-01-28T12:27:01.062Z,57.54
2018-01-28T12:29:28.730Z,57.74
2018-01-28T12:31:56.525Z,56.99
2018-01-28T12:34:24.165Z,56.67
2018-01-28T12:36:51.771Z,57.02
2018-01-28T12:39:19.318Z,58.73
2018-01-28T12:41:47.282Z,57.99
2018-01-28T12:44:15.912Z,58.32
2018-01-28T12:46:43.480Z,58.32
2018-01-28T12:49:16.744Z,59.51
2018-01-28T12:51:44.456Z,58.94
2018-01-28T12:54:12.291Z,58.56
2018-01-28T12:56:39.893Z,58.92
2018-01-28T12:59:07.516Z,58.84
2018-01-28T13:01:35.216Z,59.13
2018-01-28T13:04:03.153Z,54.03
2018-01-28T13:06:30.662Z,45.22
2018-01-28T13:08:58.222Z,47.44
2018-01-28T13:11:25.756Z,46.89
2018-01-28T13:13:53.436Z,45.05
2018-01-28T13:16:20.964Z,44.31
2018-01-28T13:18:48.599Z,44.32
2018-01-28T13:21:16.150Z,44.17
2018-01-28T13:23:43.688Z,43.79
2018-01-28T13:26:11.383Z,38.50
2018-01-28T13:28:38.899Z,39.14
2018-01-28T13:31:06.549Z,38.87
2018-01-28T13:33:35.344Z,33.67
2018-01-28T13:36:03.039Z,40.08
2018-01-28T13:38:30.896Z,40.72
2018-01-28T13:40:58.619Z,39.64
2018-01-28T13:43:26.420Z,39.02
2018-01-28T13:45:53.971Z,38.90
2018-01-28T13:48:21.551Z,37.55
2018-01-28T13:50:49.132Z,40.59
2018-01-28T13:53:16.921Z,38.94
2018-01-28T13:55:44.635Z,36.67
2018-01-28T13:58:12.310Z,35.06
2018-01-28T14:00:39.999Z,37.79
2018-01-28T14:03:07.573Z,35.37
2018-01-28T14:05:35.141Z,36.24
2018-01-28T14:08:02.722Z,35.91
2018-01-28T14:10:30.264Z,37.44
2018-01-28T14:12:57.914Z,37.07
2018-01-28T14:15:25.437Z,37.78
2018-01-28T14:17:52.949Z,37.45
2018-01-28T14:20:20.486Z,37.17
2018-01-28T14:22:48.029Z,36.97
2018-01-28T14:25:15.580Z,37.56
2018-01-28T14:27:43.109Z,38.87
2018-01-28T14:30:10.770Z,38.10
2018-01-28T14:32:38.366Z,37.56
2018-01-28T14:35:05.941Z,39.36
2018-01-28T14:37:33.595Z,38.67
2018-01-28T14:40:01.240Z,38.37
2018-01-28T14:42:29.589Z,38.04
2018-01-28T14:44:57.112Z,38.84
2018-01-28T14:47:25.676Z,38.48
2018-01-28T14:49:53.733Z,38.90
2018-01-28T14:52:21.393Z,38.70
2018-01-28T14:54:49.664Z,38.90
2018-01-28T14:57:17.224Z,39.51
2018-01-28T14:59:44.912Z,39.50
2018-01-28T15:02:12.470Z,39.38
2018-01-28T15:04:40.004Z,39.71
2018-01-28T15:07:07.667Z,41.11
2018-01-28T15:09:36.469Z,47.99
2018-01-28T15:12:05.180Z,43.25
2018-01-28T15:14:32.860Z,42.15
2018-01-28T15:17:00.448Z,41.00
2018-01-28T15:19:28.330Z,41.25
2018-01-28T15:21:55.903Z,40.46
2018-01-28T15:24:23.536Z,40.46
2018-01-28T15:26:51.398Z,52.42
2018-01-28T15:29:18.967Z,45.21
2018-01-28T15:31:46.520Z,43.63
2018-01-28T15:34:14.067Z,41.53
2018-01-28T15:36:41.770Z,40.96
2018-01-28T15:39:09.305Z,42.73
2018-01-28T15:41:36.826Z,41.24
2018-01-28T15:44:04.366Z,40.98
2018-01-28T15:46:31.892Z,42.64
2018-01-28T15:48:59.584Z,43.29
2018-01-28T15:51:27.118Z,43.61
2018-01-28T15:53:54.669Z,42.76
2018-01-28T15:56:22.202Z,42.74
2018-01-28T15:58:49.775Z,42.32
2018-01-28T16:01:17.726Z,42.57
2018-01-28T16:03:45.416Z,51.13
2018-01-28T16:06:13.133Z,67.60
2018-01-28T16:08:40.661Z,65.06
2018-01-28T16:11:08.243Z,64.78
2018-01-28T16:13:35.973Z,64.34
2018-01-28T16:16:03.573Z,64.48
2018-01-28T16:18:31.097Z,64.33
2018-01-28T16:20:58.750Z,64.49
2018-01-28T16:23:26.386Z,64.32
2018-01-28T16:25:54.663Z,64.32
2018-01-28T16:28:22.333Z,64.25
2018-01-28T16:30:50.081Z,63.96
2018-01-28T16:33:17.843Z,64.24
2018-01-28T16:35:45.430Z,64.19
2018-01-28T16:38:13.133Z,64.36
2018-01-28T16:40:40.781Z,64.51
2018-01-28T16:43:10.067Z,64.53
2018-01-28T16:45:37.630Z,64.68
2018-01-28T16:48:05.186Z,64.74
2018-01-28T16:50:33.017Z,64.92
2018-01-28T16:53:00.670Z,65.02
2018-01-28T16:55:29.960Z,65.04
2018-01-28T16:57:57.941Z,65.21
2018-01-28T17:00:26.148Z,65.31
2018-01-28T17:02:53.798Z,65.42
2018-01-28T17:05:21.368Z,65.69
2018-01-28T17:07:48.949Z,65.74
2018-01-28T17:10:16.541Z,65.80
2018-01-28T17:12:44.236Z,66.11
2018-01-28T17:15:12.168Z,66.06
2018-01-28T17:17:39.722Z,66.12
2018-01-28T17:20:07.277Z,66.41
2018-01-28T17:22:34.809Z,66.31
2018-01-28T17:25:02.532Z,66.56
2018-01-28T17:27:30.057Z,66.55
2018-01-28T17:29:57.606Z,66.61
2018-01-28T17:32:25.141Z,66.67
2018-01-28T17:34:52.693Z,66.69
2018-01-28T17:37:20.368Z,66.88
2018-01-28T17:39:47.889Z,66.97
2018-01-28T17:42:15.418Z,67.13
2018-01-28T17:44:42.984Z,67.54
2018-01-28T17:47:10.490Z,69.43
2018-01-28T17:49:38.164Z,68.25
2018-01-28T17:52:05.713Z,68.14
2018-01-28T17:54:33.239Z,68.04
2018-01-28T17:57:00.763Z,68.24
2018-01-28T17:59:28.895Z,68.18
2018-01-28T18:01:56.409Z,68.00
2018-01-28T18:04:23.952Z,68.06
2018-01-28T18:06:51.605Z,68.02
2018-01-28T18:09:20.090Z,68.06
2018-01-28T18:11:47.628Z,68.06
2018-01-28T18:14:15.146Z,68.14
2018-01-28T18:16:42.670Z,68.04
2018-01-28T18:19:10.342Z,68.02
2018-01-28T18:21:37.951Z,67.87
2018-01-28T18:24:05.473Z,67.97
2018-01-28T18:26:32.994Z,68.04
2018-01-28T18:29:00.562Z,68.24
2018-01-28T18:31:28.085Z,68.15
2018-01-28T18:33:55.612Z,68.05
2018-01-28T18:36:24.153Z,68.16
2018-01-28T18:38:51.693Z,68.14
2018-01-28T18:41:19.608Z,68.24
2018-01-28T18:43:47.125Z,77.42
2018-01-28T18:46:14.648Z,72.14
2018-01-28T18:48:42.403Z,71.49
2018-01-28T18:51:09.913Z,70.86
2018-01-28T18:53:37.498Z,72.02
2018-01-28T18:56:05.029Z,70.70
2018-01-28T18:58:34.273Z,70.15
2018-01-28T19:01:02.026Z,70.18
2018-01-28T19:03:29.765Z,70.15
2018-01-28T19:06:00.904Z,70.09
2018-01-28T19:08:28.848Z,70.32
2018-01-28T19:10:57.411Z,70.57
2018-01-28T19:13:25.284Z,72.75
2018-01-28T19:15:53.756Z,71.08
2018-01-28T19:18:21.267Z,70.92
2018-01-28T19:20:48.782Z,70.68
2018-01-28T19:23:16.317Z,70.63
2018-01-28T19:25:43.993Z,70.70
2018-01-28T19:28:11.980Z,70.66
2018-01-28T19:30:39.668Z,70.25
2018-01-28T19:33:07.209Z,70.31
2018-01-28T19:35:35.647Z,70.17
2018-01-28T19:38:04.193Z,70.09
2018-01-28T19:40:31.705Z,69.82
2018-01-28T19:42:59.599Z,70.14
2018-01-28T19:45:27.264Z,69.57
2018-01-28T19:47:54.782Z,69.76
2018-01-28T19:50:22.294Z,70.00
2018-01-28T19:52:49.809Z,69.59
2018-01-28T19:55:17.530Z,69.72
2018-01-28T19:57:45.674Z,69.64
2018-01-28T20:00:13.354Z,74.55
2018-01-28T20:02:40.883Z,71.90
2018-01-28T20:05:08.410Z,70.86
2018-01-28T20:07:35.943Z,71.09
2018-01-28T20:10:03.607Z,70.81
2018-01-28T20:12:32.134Z,70.29
2018-01-28T20:15:00.516Z,71.43
2018-01-28T20:17:28.045Z,71.06
2018-01-28T20:19:55.557Z,70.80
2018-01-28T20:22:23.077Z,70.71
2018-01-28T20:24:54.765Z,70.61
2018-01-28T20:27:22.330Z,70.58
2018-01-28T20:29:49.861Z,70.52
2018-01-28T20:32:17.378Z,70.36
2018-01-28T20:34:44.910Z,70.32
2018-01-28T20:37:12.567Z,69.92
2018-01-28T20:39:40.092Z,69.97
2018-01-28T20:42:07.588Z,69.95
2018-01-28T20:44:36.191Z,69.92
2018-01-28T20:47:03.837Z,69.74
2018-01-28T20:49:31.504Z,69.90
2018-01-28T20:51:59.031Z,69.87
2018-01-28T20:54:26.654Z,69.57
2018-01-28T20:56:54.192Z,69.40
2018-01-28T20:59:22.245Z,69.08
2018-01-28T21:01:49.761Z,69.46
2018-01-28T21:04:17.305Z,69.48
2018-01-28T21:06:44.972Z,69.28
2018-01-28T21:09:12.540Z,69.37
2018-01-28T21:11:40.033Z,69.29
2018-01-28T21:14:07.844Z,69.06
2018-01-28T21:16:35.364Z,69.24
2018-01-28T21:19:03.012Z,69.18
2018-01-28T21:21:30.550Z,69.07
2018-01-28T21:23:58.137Z,69.27
2018-01-28T21:26:25.653Z,69.18
2018-01-28T21:28:53.167Z,69.24
2018-01-28T21:31:21.522Z,68.95
2018-01-28T21:33:49.042Z,69.09
2018-01-28T21:36:16.686Z,69.12
2018-01-28T21:38:44.225Z,69.07
2018-01-28T21:41:11.767Z,69.02
2018-01-28T21:43:39.278Z,69.14
2018-01-28T21:46:06.785Z,68.84
2018-01-28T21:48:34.429Z,68.95
2018-01-28T21:51:01.965Z,68.81
2018-01-28T21:53:29.485Z,68.64
2018-01-28T21:55:57.004Z,68.81
2018-01-28T21:58:24.536Z,68.75
2018-01-28T22:00:52.228Z,68.53
2018-01-28T22:03:19.768Z,68.81
2018-01-28T22:05:47.284Z,68.61
2018-01-28T22:08:14.827Z,68.38
2018-01-28T22:10:42.364Z,68.39
2018-01-28T22:13:10.114Z,68.34
2018-01-28T22:15:37.616Z,68.30
2018-01-28T22:18:05.133Z,68.12
2018-01-28T22:20:32.665Z,68.33
2018-01-28T22:23:00.186Z,68.19
2018-01-28T22:25:27.846Z,68.23
2018-01-28T22:27:55.380Z,68.08
2018-01-28T22:30:23.848Z,68.29
2018-01-28T22:32:51.371Z,68.12
2018-01-28T22:35:18.880Z,68.11
2018-01-28T22:37:46.441Z,67.95
2018-01-28T22:40:13.986Z,68.07
2018-01-28T22:42:41.693Z,67.86
2018-01-28T22:45:09.228Z,68.05
2018-01-28T22:47:36.748Z,68.07
2018-01-28T22:50:04.270Z,68.02
2018-01-28T22:52:31.785Z,68.02
2018-01-28T22:54:59.438Z,67.90
2018-01-28T22:57:26.940Z,67.91
2018-01-28T22:59:54.472Z,67.92
2018-01-28T23:02:22.004Z,67.67
2018-01-28T23:04:49.538Z,67.73
2018-01-28T23:07:17.213Z,67.75
2018-01-28T23:09:44.732Z,67.47
2018-01-28T23:12:12.266Z,67.37
2018-01-28T23:14:39.785Z,67.41
2018-01-28T23:17:07.307Z,67.26
2018-01-28T23:19:34.960Z,67.31
2018-01-28T23:22:02.497Z,67.28
2018-01-28T23:24:30.060Z,67.30
2018-01-28T23:26:57.584Z,67.35
2018-01-28T23:29:25.109Z,67.19
2018-01-28T23:31:52.701Z,67.32
2018-01-28T23:34:20.215Z,67.30
2018-01-28T23:36:47.948Z,67.27
2018-01-28T23:39:15.568Z,67.14
2018-01-28T23:41:43.421Z,67.17
2018-01-28T23:44:10.941Z,67.16
2018-01-28T23:46:38.444Z,67.23
2018-01-28T23:49:06.127Z,66.96
2018-01-28T23:51:33.658Z,67.14
2018-01-28T23:54:01.192Z,67.01
2018-01-28T23:56:28.716Z,67.10
2018-01-28T23:58:56.233Z,67.18
